createdAt,value
2022-12-18T00:00:01.140Z,43.90
2022-12-18T00:00:22.189Z,44.70
2022-12-18T00:00:43.285Z,44.80
2022-12-18T00:01:04.339Z,44.00
2022-12-18T00:01:25.431Z,44.10
2022-12-18T00:01:46.553Z,41.90
2022-12-18T00:02:07.647Z,42.70
2022-12-18T00:02:28.777Z,40.60
2022-12-18T00:02:49.975Z,43.80
2022-12-18T00:03:11.204Z,43.40
2022-12-18T00:03:32.396Z,47.20
2022-12-18T00:03:53.760Z,45.60
2022-12-18T00:04:15.056Z,44.50
2022-12-18T00:04:36.143Z,44.20
2022-12-18T00:04:57.396Z,46.10
2022-12-18T00:05:18.439Z,45.90
2022-12-18T00:05:39.509Z,42.50
2022-12-18T00:06:00.688Z,41.80
2022-12-18T00:06:21.705Z,43.50
2022-12-18T00:06:42.755Z,45.00
2022-12-18T00:07:05.593Z,45.00
2022-12-18T00:07:26.748Z,41.70
2022-12-18T00:07:47.789Z,41.70
2022-12-18T00:08:09.266Z,43.50
2022-12-18T00:08:30.618Z,44.20
2022-12-18T00:08:51.689Z,45.50
2022-12-18T00:09:12.753Z,45.50
2022-12-18T00:09:39.965Z,43.90
2022-12-18T00:10:00.796Z,43.80
2022-12-18T00:10:21.855Z,43.10
2022-12-18T00:10:42.950Z,46.60
2022-12-18T00:11:04.016Z,43.50
2022-12-18T00:11:28.135Z,42.60
2022-12-18T00:11:49.194Z,44.60
2022-12-18T00:12:37.225Z,43.80
2022-12-18T00:12:58.297Z,42.10
2022-12-18T00:13:19.429Z,41.10
2022-12-18T00:13:41.070Z,43.50
2022-12-18T00:14:02.302Z,41.40
2022-12-18T00:14:23.363Z,40.40
2022-12-18T00:14:44.433Z,41.60
2022-12-18T00:15:05.514Z,41.30
2022-12-18T00:15:26.583Z,40.60
2022-12-18T00:15:47.701Z,43.30
2022-12-18T00:16:08.794Z,45.10
2022-12-18T00:16:29.930Z,43.90
2022-12-18T00:16:51.044Z,43.30
2022-12-18T00:17:12.103Z,42.60
2022-12-18T00:17:33.152Z,44.30
2022-12-18T00:17:54.215Z,40.70
2022-12-18T00:18:18.957Z,42.00
2022-12-18T00:18:42.510Z,42.40
2022-12-18T00:19:03.618Z,43.00
2022-12-18T00:19:24.678Z,43.50
2022-12-18T00:19:45.737Z,42.10
2022-12-18T00:20:06.818Z,40.40
2022-12-18T00:20:27.870Z,40.80
2022-12-18T00:20:48.935Z,42.30
2022-12-18T00:21:10.032Z,39.40
2022-12-18T00:21:31.067Z,42.60
2022-12-18T00:21:52.115Z,41.20
2022-12-18T00:22:13.216Z,44.00
2022-12-18T00:22:34.267Z,44.90
2022-12-18T00:22:55.326Z,41.30
2022-12-18T00:23:16.415Z,40.70
2022-12-18T00:23:37.996Z,41.70
2022-12-18T00:23:59.255Z,42.90
2022-12-18T00:24:20.353Z,43.00
2022-12-18T00:24:41.794Z,51.10
2022-12-18T00:25:02.869Z,48.20
2022-12-18T00:25:23.954Z,43.90
2022-12-18T00:25:45.344Z,42.10
2022-12-18T00:26:06.401Z,40.10
2022-12-18T00:26:27.465Z,40.40
2022-12-18T00:26:48.584Z,43.40
2022-12-18T00:27:09.649Z,42.50
2022-12-18T00:27:30.708Z,43.30
2022-12-18T00:27:51.774Z,41.00
2022-12-18T00:28:12.829Z,38.20
2022-12-18T00:28:33.943Z,43.60
2022-12-18T00:28:54.991Z,45.40
2022-12-18T00:29:16.044Z,44.00
2022-12-18T00:29:37.098Z,45.50
2022-12-18T00:29:58.176Z,44.80
2022-12-18T00:30:19.235Z,43.10
2022-12-18T00:30:40.335Z,42.10
2022-12-18T00:31:01.474Z,43.60
2022-12-18T00:31:22.623Z,43.50
2022-12-18T00:31:43.755Z,40.90
2022-12-18T00:32:04.932Z,42.60
2022-12-18T00:32:26.125Z,44.40
2022-12-18T00:32:47.148Z,45.70
2022-12-18T00:33:08.219Z,45.80
2022-12-18T00:33:29.279Z,45.60
2022-12-18T00:33:51.216Z,49.10
2022-12-18T00:34:16.158Z,44.10
2022-12-18T00:34:37.223Z,46.30
2022-12-18T00:34:58.279Z,48.50
2022-12-18T00:35:19.336Z,48.30
2022-12-18T00:35:40.512Z,49.80
2022-12-18T00:36:01.585Z,52.00
2022-12-18T00:36:22.649Z,50.90
2022-12-18T00:36:43.712Z,49.40
2022-12-18T00:37:04.765Z,50.00
2022-12-18T00:37:25.826Z,49.50
2022-12-18T00:37:46.910Z,52.50
2022-12-18T00:38:07.985Z,52.80
2022-12-18T00:38:29.070Z,56.00
2022-12-18T00:38:50.135Z,53.20
2022-12-18T00:39:11.243Z,52.20
2022-12-18T00:39:32.276Z,54.70
2022-12-18T00:39:53.339Z,51.00
2022-12-18T00:40:14.403Z,52.90
2022-12-18T00:40:35.577Z,54.20
2022-12-18T00:40:56.603Z,52.80
2022-12-18T00:41:17.856Z,55.20
2022-12-18T00:41:38.924Z,54.70
2022-12-18T00:41:59.981Z,55.90
2022-12-18T00:42:21.033Z,52.30
2022-12-18T00:42:42.093Z,52.60
2022-12-18T00:43:03.170Z,51.50
2022-12-18T00:43:24.230Z,54.90
2022-12-18T00:43:45.528Z,51.50
2022-12-18T00:44:06.564Z,53.40
2022-12-18T00:44:27.663Z,57.10
2022-12-18T00:44:48.705Z,53.90
2022-12-18T00:45:12.882Z,50.70
2022-12-18T00:45:34.352Z,53.60
2022-12-18T00:45:55.549Z,54.20
2022-12-18T00:46:16.724Z,55.50
2022-12-18T00:46:37.933Z,56.00
2022-12-18T00:46:59.017Z,55.00
2022-12-18T00:47:20.056Z,57.70
2022-12-18T00:47:41.115Z,63.40
2022-12-18T00:48:02.187Z,59.30
2022-12-18T00:48:23.283Z,56.30
2022-12-18T00:48:44.331Z,57.10
2022-12-18T00:49:06.211Z,57.20
2022-12-18T00:49:27.292Z,56.40
2022-12-18T00:49:48.328Z,52.60
2022-12-18T00:50:09.383Z,56.50
2022-12-18T00:50:30.505Z,58.30
2022-12-18T00:50:51.547Z,58.10
2022-12-18T00:51:12.620Z,50.40
2022-12-18T00:51:33.666Z,54.80
2022-12-18T00:51:54.888Z,55.60
2022-12-18T00:52:15.938Z,54.60
2022-12-18T00:52:37.022Z,54.80
2022-12-18T00:52:58.083Z,57.50
2022-12-18T00:53:19.158Z,56.20
2022-12-18T00:53:40.782Z,59.10
2022-12-18T00:54:02.017Z,59.00
2022-12-18T00:54:23.090Z,59.20
2022-12-18T00:54:44.129Z,56.40
2022-12-18T00:55:06.647Z,55.40
2022-12-18T00:55:27.825Z,57.50
2022-12-18T00:55:48.898Z,59.10
2022-12-18T00:56:09.960Z,54.80
2022-12-18T00:56:31.016Z,57.80
2022-12-18T00:56:52.080Z,58.20
2022-12-18T00:57:13.317Z,55.30
2022-12-18T00:57:34.369Z,54.70
2022-12-18T00:57:55.438Z,54.90
2022-12-18T00:58:16.498Z,52.80
2022-12-18T00:58:37.579Z,56.10
2022-12-18T00:58:58.633Z,58.30
2022-12-18T00:59:19.711Z,57.00
2022-12-18T00:59:40.763Z,56.10
2022-12-18T01:00:01.850Z,54.60
2022-12-18T01:00:22.969Z,54.30
2022-12-18T01:00:44.102Z,54.90
2022-12-18T01:01:05.211Z,53.30
2022-12-18T01:01:26.449Z,52.20
2022-12-18T01:01:48.002Z,54.00
2022-12-18T01:02:09.349Z,52.50
2022-12-18T01:02:30.668Z,49.50
2022-12-18T01:02:51.857Z,53.40
2022-12-18T01:03:12.997Z,55.70
2022-12-18T01:03:34.044Z,53.00
2022-12-18T01:03:55.122Z,53.20
2022-12-18T01:04:16.175Z,57.60
2022-12-18T01:04:37.244Z,55.60
2022-12-18T01:04:58.309Z,53.60
2022-12-18T01:05:19.350Z,52.50
2022-12-18T01:05:40.410Z,54.40
2022-12-18T01:06:01.480Z,55.00
2022-12-18T01:06:22.531Z,53.80
2022-12-18T01:06:43.587Z,53.40
2022-12-18T01:07:05.719Z,55.80
2022-12-18T01:07:26.788Z,54.80
2022-12-18T01:07:47.876Z,57.00
2022-12-18T01:08:08.931Z,58.20
2022-12-18T01:08:30.084Z,55.80
2022-12-18T01:08:51.116Z,57.30
2022-12-18T01:09:12.180Z,54.30
2022-12-18T01:09:33.247Z,52.50
2022-12-18T01:09:54.307Z,52.20
2022-12-18T01:10:15.409Z,51.90
2022-12-18T01:10:36.453Z,57.60
2022-12-18T01:10:57.511Z,53.80
2022-12-18T01:11:18.587Z,53.10
2022-12-18T01:11:39.639Z,55.10
2022-12-18T01:12:00.695Z,52.70
2022-12-18T01:12:21.780Z,50.30
2022-12-18T01:12:42.826Z,55.90
2022-12-18T01:13:04.058Z,49.50
2022-12-18T01:13:25.120Z,47.00
2022-12-18T01:13:46.184Z,49.00
2022-12-18T01:14:07.242Z,50.90
2022-12-18T01:14:28.294Z,50.80
2022-12-18T01:14:49.373Z,51.30
2022-12-18T01:15:10.463Z,51.80
2022-12-18T01:15:31.594Z,54.30
2022-12-18T01:15:52.657Z,47.60
2022-12-18T01:16:13.729Z,49.50
2022-12-18T01:16:34.931Z,47.10
2022-12-18T01:16:55.972Z,47.90
2022-12-18T01:17:17.081Z,50.90
2022-12-18T01:17:38.137Z,50.30
2022-12-18T01:17:59.190Z,49.80
2022-12-18T01:18:20.413Z,50.30
2022-12-18T01:18:41.470Z,47.10
2022-12-18T01:19:02.538Z,48.60
2022-12-18T01:19:23.594Z,50.20
2022-12-18T01:19:44.662Z,51.80
2022-12-18T01:20:05.717Z,50.20
2022-12-18T01:20:26.805Z,51.40
2022-12-18T01:20:47.862Z,51.90
2022-12-18T01:21:08.927Z,46.20
2022-12-18T01:21:29.995Z,50.90
2022-12-18T01:21:51.131Z,48.70
2022-12-18T01:22:12.183Z,48.60
2022-12-18T01:22:33.372Z,51.60
2022-12-18T01:22:54.403Z,51.70
2022-12-18T01:23:15.475Z,47.50
2022-12-18T01:23:37.016Z,48.80
2022-12-18T01:23:58.295Z,53.20
2022-12-18T01:24:19.390Z,51.10
2022-12-18T01:24:40.488Z,48.20
2022-12-18T01:25:01.538Z,46.50
2022-12-18T01:25:22.575Z,50.90
2022-12-18T01:25:43.640Z,48.50
2022-12-18T01:26:04.707Z,46.40
2022-12-18T01:26:25.785Z,51.60
2022-12-18T01:26:46.852Z,50.20
2022-12-18T01:27:07.906Z,49.90
2022-12-18T01:27:28.978Z,48.10
2022-12-18T01:27:50.031Z,48.10
2022-12-18T01:28:11.089Z,52.20
2022-12-18T01:28:32.165Z,50.00
2022-12-18T01:28:53.271Z,46.30
2022-12-18T01:29:14.330Z,48.20
2022-12-18T01:29:35.403Z,50.00
2022-12-18T01:29:56.473Z,49.30
2022-12-18T01:30:17.521Z,53.20
2022-12-18T01:30:38.579Z,52.70
2022-12-18T01:30:59.636Z,50.00
2022-12-18T01:31:20.778Z,49.20
2022-12-18T01:31:42.014Z,47.20
2022-12-18T01:32:03.114Z,52.40
2022-12-18T01:32:24.224Z,49.00
2022-12-18T01:32:45.294Z,48.80
2022-12-18T01:33:06.361Z,51.60
2022-12-18T01:33:27.421Z,53.90
2022-12-18T01:33:48.493Z,50.80
2022-12-18T01:34:09.704Z,50.00
2022-12-18T01:34:30.776Z,48.70
2022-12-18T01:34:51.939Z,50.20
2022-12-18T01:35:12.999Z,50.40
2022-12-18T01:35:34.035Z,51.30
2022-12-18T01:35:55.161Z,47.70
2022-12-18T01:36:16.214Z,46.00
2022-12-18T01:36:37.285Z,49.30
2022-12-18T01:36:58.374Z,49.10
2022-12-18T01:37:19.496Z,48.10
2022-12-18T01:37:40.556Z,50.40
2022-12-18T01:38:01.620Z,50.60
2022-12-18T01:38:22.677Z,48.90
2022-12-18T01:38:43.742Z,50.70
2022-12-18T01:39:04.810Z,52.20
2022-12-18T01:39:26.043Z,53.10
2022-12-18T01:39:47.102Z,47.60
2022-12-18T01:40:08.160Z,49.00
2022-12-18T01:40:29.244Z,50.40
2022-12-18T01:40:50.297Z,50.50
2022-12-18T01:41:11.377Z,47.90
2022-12-18T01:41:32.438Z,49.80
2022-12-18T01:41:53.519Z,46.00
2022-12-18T01:42:14.550Z,50.20
2022-12-18T01:42:35.638Z,48.50
2022-12-18T01:42:56.705Z,48.80
2022-12-18T01:43:17.775Z,49.10
2022-12-18T01:43:39.337Z,49.40
2022-12-18T01:44:00.593Z,49.40
2022-12-18T01:44:21.650Z,49.50
2022-12-18T01:44:42.890Z,51.50
2022-12-18T01:45:03.984Z,49.00
2022-12-18T01:45:25.081Z,49.90
2022-12-18T01:45:46.192Z,50.80
2022-12-18T01:46:07.335Z,52.40
2022-12-18T01:46:28.392Z,53.20
2022-12-18T01:46:49.440Z,52.90
2022-12-18T01:47:10.511Z,48.40
2022-12-18T01:47:31.585Z,49.40
2022-12-18T01:47:52.679Z,54.30
2022-12-18T01:48:13.721Z,54.30
2022-12-18T01:48:34.801Z,51.80
2022-12-18T01:48:55.857Z,51.80
2022-12-18T01:49:16.935Z,50.10
2022-12-18T01:49:37.998Z,47.40
2022-12-18T01:49:59.235Z,49.70
2022-12-18T01:50:20.322Z,47.20
2022-12-18T01:50:41.370Z,48.60
2022-12-18T01:51:02.430Z,49.20
2022-12-18T01:51:23.512Z,48.40
2022-12-18T01:51:44.561Z,48.10
2022-12-18T01:52:05.616Z,46.10
2022-12-18T01:52:26.703Z,46.20
2022-12-18T01:52:47.760Z,48.50
2022-12-18T01:53:08.814Z,47.00
2022-12-18T01:53:29.887Z,49.80
2022-12-18T01:53:50.944Z,48.50
2022-12-18T01:54:12.076Z,46.80
2022-12-18T01:54:33.108Z,48.50
2022-12-18T01:54:54.167Z,48.30
2022-12-18T01:55:15.421Z,47.60
2022-12-18T01:55:36.488Z,43.20
2022-12-18T01:55:57.651Z,44.40
2022-12-18T01:56:18.666Z,45.10
2022-12-18T01:56:39.732Z,46.60
2022-12-18T01:57:00.798Z,48.00
2022-12-18T01:57:21.885Z,46.00
2022-12-18T01:57:42.938Z,48.30
2022-12-18T01:58:04.012Z,44.80
2022-12-18T01:58:25.075Z,42.50
2022-12-18T01:58:46.129Z,46.20
2022-12-18T01:59:07.239Z,47.80
2022-12-18T01:59:28.300Z,45.70
2022-12-18T01:59:49.374Z,45.40
2022-12-18T02:00:10.487Z,45.10
2022-12-18T02:00:31.538Z,44.80
2022-12-18T02:00:52.694Z,47.10
2022-12-18T02:01:13.926Z,44.80
2022-12-18T02:01:35.205Z,44.00
2022-12-18T02:01:56.699Z,45.80
2022-12-18T02:02:18.005Z,47.20
2022-12-18T02:02:39.235Z,40.70
2022-12-18T02:03:00.487Z,44.50
2022-12-18T02:03:21.729Z,45.10
2022-12-18T02:03:42.818Z,44.00
2022-12-18T02:04:03.879Z,44.10
2022-12-18T02:04:24.937Z,47.90
2022-12-18T02:04:49.380Z,46.30
2022-12-18T02:05:10.768Z,43.40
2022-12-18T02:05:31.861Z,44.40
2022-12-18T02:05:52.908Z,44.90
2022-12-18T02:06:13.977Z,43.00
2022-12-18T02:06:35.029Z,42.70
2022-12-18T02:06:56.183Z,42.70
2022-12-18T02:07:17.217Z,44.20
2022-12-18T02:07:38.275Z,41.80
2022-12-18T02:07:59.342Z,40.20
2022-12-18T02:08:20.398Z,41.50
2022-12-18T02:08:41.501Z,44.50
2022-12-18T02:09:02.556Z,45.00
2022-12-18T02:09:23.626Z,42.90
2022-12-18T02:09:44.682Z,46.40
2022-12-18T02:10:05.784Z,45.80
2022-12-18T02:10:26.839Z,44.10
2022-12-18T02:10:47.931Z,46.90
2022-12-18T02:11:09.014Z,44.30
2022-12-18T02:11:30.063Z,42.00
2022-12-18T02:11:51.133Z,42.10
2022-12-18T02:12:12.187Z,40.30
2022-12-18T02:12:33.362Z,43.90
2022-12-18T02:12:54.388Z,43.10
2022-12-18T02:13:15.442Z,40.50
2022-12-18T02:13:36.939Z,43.00
2022-12-18T02:13:58.213Z,47.90
2022-12-18T02:14:19.281Z,47.90
2022-12-18T02:14:40.358Z,45.30
2022-12-18T02:15:01.417Z,43.10
2022-12-18T02:15:22.536Z,48.40
2022-12-18T02:15:43.644Z,47.30
2022-12-18T02:16:04.802Z,45.30
2022-12-18T02:16:25.901Z,48.30
2022-12-18T02:16:47.001Z,47.60
2022-12-18T02:17:08.065Z,45.30
2022-12-18T02:17:29.119Z,45.70
2022-12-18T02:17:50.181Z,47.80
2022-12-18T02:18:11.240Z,47.00
2022-12-18T02:18:32.395Z,47.10
2022-12-18T02:18:53.428Z,47.00
2022-12-18T02:19:14.488Z,45.70
2022-12-18T02:19:35.543Z,44.70
2022-12-18T02:19:56.638Z,43.70
2022-12-18T02:20:17.714Z,45.80
2022-12-18T02:20:38.777Z,43.80
2022-12-18T02:20:59.841Z,44.20
2022-12-18T02:21:21.065Z,47.80
2022-12-18T02:21:42.163Z,49.10
2022-12-18T02:22:03.199Z,44.60
2022-12-18T02:22:24.253Z,44.50
2022-12-18T02:22:46.106Z,43.40
2022-12-18T02:23:07.187Z,43.50
2022-12-18T02:23:28.257Z,44.40
2022-12-18T02:23:49.309Z,44.90
2022-12-18T02:24:10.375Z,42.20
2022-12-18T02:24:31.486Z,42.70
2022-12-18T02:24:52.505Z,41.90
2022-12-18T02:25:13.551Z,44.10
2022-12-18T02:25:34.625Z,46.20
2022-12-18T02:25:55.685Z,43.90
2022-12-18T02:26:16.930Z,42.00
2022-12-18T02:26:38.010Z,42.30
2022-12-18T02:26:59.057Z,46.00
2022-12-18T02:27:20.120Z,47.10
2022-12-18T02:27:41.305Z,43.80
2022-12-18T02:28:02.313Z,46.00
2022-12-18T02:28:23.373Z,47.30
2022-12-18T02:28:44.497Z,44.80
2022-12-18T02:29:05.558Z,41.70
2022-12-18T02:29:26.616Z,40.90
2022-12-18T02:29:51.662Z,44.40
2022-12-18T02:30:14.670Z,43.70
2022-12-18T02:30:35.748Z,42.90
2022-12-18T02:30:56.848Z,42.20
2022-12-18T02:31:18.117Z,41.20
2022-12-18T02:31:39.219Z,47.00
2022-12-18T02:32:00.264Z,46.80
2022-12-18T02:32:21.304Z,45.90
2022-12-18T02:32:42.376Z,46.30
2022-12-18T02:33:03.463Z,43.80
2022-12-18T02:33:24.508Z,42.10
2022-12-18T02:33:45.551Z,45.10
2022-12-18T02:34:06.623Z,43.10
2022-12-18T02:34:27.825Z,46.70
2022-12-18T02:34:48.838Z,42.40
2022-12-18T02:35:09.915Z,41.70
2022-12-18T02:35:30.970Z,40.20
2022-12-18T02:35:52.124Z,40.30
2022-12-18T02:36:13.142Z,41.80
2022-12-18T02:36:34.354Z,42.00
2022-12-18T02:36:55.374Z,41.00
2022-12-18T02:37:16.440Z,45.40
2022-12-18T02:37:37.506Z,45.90
2022-12-18T02:37:58.573Z,45.50
2022-12-18T02:38:19.687Z,44.80
2022-12-18T02:38:40.699Z,42.50
2022-12-18T02:39:01.792Z,47.70
2022-12-18T02:39:22.833Z,42.10
2022-12-18T02:39:43.901Z,41.90
2022-12-18T02:40:04.983Z,43.20
2022-12-18T02:40:26.027Z,43.70
2022-12-18T02:40:47.082Z,43.90
2022-12-18T02:41:08.203Z,45.10
2022-12-18T02:41:29.267Z,44.70
2022-12-18T02:41:50.362Z,42.30
2022-12-18T02:42:11.400Z,40.10
2022-12-18T02:42:32.454Z,39.50
2022-12-18T02:42:53.628Z,42.10
2022-12-18T02:43:14.629Z,42.20
2022-12-18T02:43:35.925Z,41.10
2022-12-18T02:43:57.142Z,38.20
2022-12-18T02:44:18.518Z,41.90
2022-12-18T02:44:39.577Z,42.40
2022-12-18T02:45:00.750Z,41.40
2022-12-18T02:45:21.807Z,41.80
2022-12-18T02:45:42.990Z,41.10
2022-12-18T02:46:04.081Z,40.90
2022-12-18T02:46:25.169Z,41.20
2022-12-18T02:46:46.230Z,39.40
2022-12-18T02:47:07.279Z,40.90
2022-12-18T02:47:28.331Z,42.80
2022-12-18T02:47:49.430Z,42.00
2022-12-18T02:48:10.479Z,44.50
2022-12-18T02:48:31.556Z,43.10
2022-12-18T02:48:52.660Z,41.70
2022-12-18T02:49:13.703Z,43.10
2022-12-18T02:49:34.768Z,43.50
2022-12-18T02:49:55.837Z,40.70
2022-12-18T02:50:16.912Z,44.30
2022-12-18T02:50:37.972Z,38.00
2022-12-18T02:50:59.119Z,40.10
2022-12-18T02:51:20.149Z,42.90
2022-12-18T02:51:41.201Z,42.00
2022-12-18T02:52:02.505Z,42.80
2022-12-18T02:52:23.533Z,40.80
2022-12-18T02:52:44.592Z,41.80
2022-12-18T02:53:05.641Z,42.00
2022-12-18T02:53:26.716Z,42.80
2022-12-18T02:53:47.757Z,43.20
2022-12-18T02:54:08.904Z,41.80
2022-12-18T02:54:29.935Z,44.70
2022-12-18T02:54:51.455Z,43.40
2022-12-18T02:55:12.553Z,40.60
2022-12-18T02:55:33.704Z,41.20
2022-12-18T02:55:54.742Z,41.70
2022-12-18T02:56:15.835Z,46.30
2022-12-18T02:56:36.863Z,44.00
2022-12-18T02:56:57.923Z,43.50
2022-12-18T02:57:19.145Z,38.70
2022-12-18T02:57:40.215Z,37.60
2022-12-18T02:58:01.394Z,40.70
2022-12-18T02:58:22.412Z,39.80
2022-12-18T02:58:43.475Z,44.40
2022-12-18T02:59:04.557Z,43.80
2022-12-18T02:59:25.604Z,44.90
2022-12-18T02:59:46.670Z,42.70
2022-12-18T03:00:07.725Z,39.90
2022-12-18T03:00:28.778Z,39.30
2022-12-18T03:00:49.904Z,40.00
2022-12-18T03:01:11.082Z,42.00
2022-12-18T03:01:32.355Z,43.40
2022-12-18T03:01:53.637Z,42.10
2022-12-18T03:02:14.963Z,38.90
2022-12-18T03:02:36.251Z,36.70
2022-12-18T03:02:57.529Z,38.90
2022-12-18T03:03:18.708Z,38.40
2022-12-18T03:03:41.855Z,38.70
2022-12-18T03:04:03.118Z,39.50
2022-12-18T03:04:24.183Z,39.50
2022-12-18T03:04:45.243Z,39.60
2022-12-18T03:05:06.299Z,41.40
2022-12-18T03:05:27.433Z,40.70
2022-12-18T03:05:48.464Z,38.30
2022-12-18T03:06:09.517Z,41.70
2022-12-18T03:06:30.571Z,41.90
2022-12-18T03:06:51.682Z,40.10
2022-12-18T03:07:12.739Z,44.30
2022-12-18T03:07:33.795Z,41.30
2022-12-18T03:07:54.912Z,41.70
2022-12-18T03:08:15.960Z,43.60
2022-12-18T03:08:37.021Z,41.00
2022-12-18T03:08:58.097Z,41.40
2022-12-18T03:09:19.149Z,43.00
2022-12-18T03:09:40.225Z,40.00
2022-12-18T03:10:01.286Z,42.20
2022-12-18T03:10:22.355Z,41.60
2022-12-18T03:10:43.412Z,42.30
2022-12-18T03:11:04.499Z,39.70
2022-12-18T03:11:25.565Z,40.80
2022-12-18T03:11:46.653Z,42.40
2022-12-18T03:12:07.695Z,42.90
2022-12-18T03:12:28.749Z,41.90
2022-12-18T03:12:49.815Z,42.60
2022-12-18T03:13:11.126Z,41.00
2022-12-18T03:13:32.137Z,40.30
2022-12-18T03:13:53.210Z,41.10
2022-12-18T03:14:14.321Z,42.20
2022-12-18T03:14:35.361Z,47.30
2022-12-18T03:14:56.418Z,43.70
2022-12-18T03:15:17.983Z,43.70
2022-12-18T03:15:39.196Z,42.20
2022-12-18T03:16:00.253Z,41.20
2022-12-18T03:16:21.349Z,40.80
2022-12-18T03:16:42.544Z,40.40
2022-12-18T03:17:03.660Z,40.20
2022-12-18T03:17:25.944Z,40.80
2022-12-18T03:17:47.012Z,41.60
2022-12-18T03:18:08.092Z,40.10
2022-12-18T03:18:29.321Z,43.30
2022-12-18T03:18:50.394Z,43.70
2022-12-18T03:19:11.444Z,42.90
2022-12-18T03:19:32.707Z,42.10
2022-12-18T03:19:53.775Z,40.40
2022-12-18T03:20:14.874Z,43.80
2022-12-18T03:20:35.931Z,43.40
2022-12-18T03:20:56.999Z,41.10
2022-12-18T03:21:18.100Z,41.70
2022-12-18T03:21:39.143Z,42.40
2022-12-18T03:22:00.582Z,42.50
2022-12-18T03:22:21.644Z,40.60
2022-12-18T03:22:42.721Z,41.20
2022-12-18T03:23:03.773Z,40.70
2022-12-18T03:23:26.453Z,39.40
2022-12-18T03:23:47.710Z,41.70
2022-12-18T03:24:08.807Z,41.40
2022-12-18T03:24:30.832Z,44.70
2022-12-18T03:24:51.893Z,42.40
2022-12-18T03:25:12.951Z,41.10
2022-12-18T03:25:34.021Z,42.10
2022-12-18T03:25:55.131Z,42.30
2022-12-18T03:26:16.162Z,40.90
2022-12-18T03:26:37.220Z,42.40
2022-12-18T03:26:58.815Z,38.60
2022-12-18T03:27:19.855Z,40.50
2022-12-18T03:27:40.925Z,38.90
2022-12-18T03:28:01.989Z,38.70
2022-12-18T03:28:23.179Z,39.90
2022-12-18T03:28:44.199Z,40.60
2022-12-18T03:29:05.410Z,40.80
2022-12-18T03:29:26.531Z,42.30
2022-12-18T03:29:47.563Z,42.00
2022-12-18T03:30:08.618Z,42.30
2022-12-18T03:30:29.734Z,42.70
2022-12-18T03:30:50.804Z,41.00
2022-12-18T03:31:11.923Z,44.90
2022-12-18T03:31:32.976Z,41.10
2022-12-18T03:31:54.022Z,41.60
2022-12-18T03:32:15.082Z,42.20
2022-12-18T03:32:36.162Z,43.00
2022-12-18T03:33:00.255Z,43.70
2022-12-18T03:33:21.607Z,43.30
2022-12-18T03:33:43.064Z,41.80
2022-12-18T03:34:04.118Z,42.30
2022-12-18T03:34:25.328Z,42.00
2022-12-18T03:34:46.461Z,42.20
2022-12-18T03:35:07.507Z,40.10
2022-12-18T03:35:28.551Z,39.20
2022-12-18T03:35:49.623Z,40.60
2022-12-18T03:36:10.711Z,40.50
2022-12-18T03:36:31.746Z,41.80
2022-12-18T03:36:52.814Z,41.50
2022-12-18T03:37:13.874Z,41.30
2022-12-18T03:37:34.940Z,42.90
2022-12-18T03:37:56.004Z,42.10
2022-12-18T03:38:17.063Z,42.70
2022-12-18T03:38:38.138Z,40.60
2022-12-18T03:38:59.218Z,41.60
2022-12-18T03:39:20.261Z,43.60
2022-12-18T03:39:41.405Z,42.10
2022-12-18T03:40:02.438Z,41.80
2022-12-18T03:40:23.499Z,39.20
2022-12-18T03:40:44.542Z,39.30
2022-12-18T03:41:05.628Z,40.00
2022-12-18T03:41:26.690Z,43.20
2022-12-18T03:41:47.944Z,42.20
2022-12-18T03:42:09.001Z,43.20
2022-12-18T03:42:30.061Z,46.30
2022-12-18T03:42:51.125Z,44.80
2022-12-18T03:43:12.184Z,43.40
2022-12-18T03:43:33.369Z,41.30
2022-12-18T03:43:54.433Z,40.80
2022-12-18T03:44:15.527Z,43.40
2022-12-18T03:44:36.572Z,44.00
2022-12-18T03:44:57.809Z,42.50
2022-12-18T03:45:18.840Z,41.80
2022-12-18T03:45:39.943Z,41.30
2022-12-18T03:46:01.068Z,40.30
2022-12-18T03:46:22.168Z,41.70
2022-12-18T03:46:43.510Z,40.50
2022-12-18T03:47:04.578Z,43.20
2022-12-18T03:47:25.688Z,41.10
2022-12-18T03:47:46.728Z,41.50
2022-12-18T03:48:07.802Z,43.00
2022-12-18T03:48:28.849Z,40.90
2022-12-18T03:48:49.931Z,41.70
2022-12-18T03:49:11.049Z,42.50
2022-12-18T03:49:32.072Z,42.90
2022-12-18T03:49:53.129Z,40.00
2022-12-18T03:50:14.283Z,38.40
2022-12-18T03:50:35.307Z,41.80
2022-12-18T03:50:56.363Z,41.90
2022-12-18T03:51:17.427Z,42.10
2022-12-18T03:51:38.491Z,40.10
2022-12-18T03:51:59.566Z,40.20
2022-12-18T03:52:20.622Z,40.40
2022-12-18T03:52:41.683Z,42.70
2022-12-18T03:53:02.735Z,43.20
2022-12-18T03:53:23.806Z,42.40
2022-12-18T03:53:44.848Z,41.50
2022-12-18T03:54:05.905Z,42.00
2022-12-18T03:54:26.969Z,42.80
2022-12-18T03:54:48.038Z,39.90
2022-12-18T03:55:09.095Z,41.70
2022-12-18T03:55:30.202Z,44.80
2022-12-18T03:55:51.250Z,39.60
2022-12-18T03:56:12.326Z,41.00
2022-12-18T03:56:33.436Z,47.20
2022-12-18T03:56:54.498Z,44.80
2022-12-18T03:57:15.557Z,40.10
2022-12-18T03:57:36.607Z,37.10
2022-12-18T03:57:57.670Z,39.00
2022-12-18T03:58:18.788Z,41.20
2022-12-18T03:58:39.911Z,40.70
2022-12-18T03:59:03.127Z,38.90
2022-12-18T03:59:24.169Z,39.60
2022-12-18T03:59:45.252Z,39.70
2022-12-18T04:00:06.328Z,40.20
2022-12-18T04:00:27.365Z,39.50
2022-12-18T04:00:48.466Z,40.10
2022-12-18T04:01:09.602Z,44.10
2022-12-18T04:01:30.748Z,41.90
2022-12-18T04:01:52.014Z,40.40
2022-12-18T04:02:13.308Z,39.10
2022-12-18T04:02:34.554Z,44.60
2022-12-18T04:02:55.675Z,39.90
2022-12-18T04:03:16.802Z,40.50
2022-12-18T04:03:37.968Z,38.70
2022-12-18T04:03:59.050Z,39.70
2022-12-18T04:04:20.131Z,41.70
2022-12-18T04:04:41.174Z,38.60
2022-12-18T04:05:02.246Z,42.20
2022-12-18T04:05:23.289Z,40.70
2022-12-18T04:05:44.503Z,39.60
2022-12-18T04:06:05.562Z,39.10
2022-12-18T04:06:26.646Z,40.90
2022-12-18T04:06:47.689Z,37.00
2022-12-18T04:07:08.757Z,40.00
2022-12-18T04:07:29.830Z,41.40
2022-12-18T04:07:50.894Z,41.50
2022-12-18T04:08:11.937Z,41.90
2022-12-18T04:08:32.990Z,38.50
2022-12-18T04:08:54.046Z,41.10
2022-12-18T04:09:15.135Z,41.90
2022-12-18T04:09:36.269Z,40.90
2022-12-18T04:09:57.299Z,42.00
2022-12-18T04:10:18.355Z,39.40
2022-12-18T04:10:39.427Z,35.50
2022-12-18T04:11:00.649Z,38.50
2022-12-18T04:11:21.718Z,37.80
2022-12-18T04:11:42.770Z,41.20
2022-12-18T04:12:03.831Z,41.40
2022-12-18T04:12:24.917Z,39.90
2022-12-18T04:12:45.965Z,35.60
2022-12-18T04:13:07.016Z,39.70
2022-12-18T04:13:28.073Z,41.40
2022-12-18T04:13:49.257Z,40.90
2022-12-18T04:14:14.411Z,39.70
2022-12-18T04:14:37.251Z,41.00
2022-12-18T04:14:58.369Z,39.20
2022-12-18T04:15:19.408Z,41.50
2022-12-18T04:15:40.572Z,42.60
2022-12-18T04:16:01.906Z,41.40
2022-12-18T04:16:22.936Z,41.30
2022-12-18T04:16:44.008Z,39.60
2022-12-18T04:17:05.060Z,37.40
2022-12-18T04:17:26.126Z,39.70
2022-12-18T04:17:47.190Z,38.30
2022-12-18T04:18:08.280Z,37.20
2022-12-18T04:18:29.329Z,40.00
2022-12-18T04:18:50.411Z,40.40
2022-12-18T04:19:11.494Z,41.80
2022-12-18T04:19:32.614Z,39.40
2022-12-18T04:19:53.685Z,37.80
2022-12-18T04:20:14.714Z,38.80
2022-12-18T04:20:35.784Z,39.00
2022-12-18T04:20:56.857Z,38.70
2022-12-18T04:21:17.932Z,41.70
2022-12-18T04:21:39.055Z,39.30
2022-12-18T04:22:00.121Z,36.40
2022-12-18T04:22:21.153Z,38.00
2022-12-18T04:22:42.207Z,38.60
2022-12-18T04:23:03.272Z,38.60
2022-12-18T04:23:24.385Z,36.60
2022-12-18T04:23:45.424Z,39.30
2022-12-18T04:24:06.484Z,39.70
2022-12-18T04:24:27.535Z,37.80
2022-12-18T04:24:48.589Z,39.30
2022-12-18T04:25:09.667Z,41.20
2022-12-18T04:25:30.724Z,37.00
2022-12-18T04:25:51.787Z,38.30
2022-12-18T04:26:12.847Z,39.60
2022-12-18T04:26:33.944Z,39.80
2022-12-18T04:26:55.001Z,36.40
2022-12-18T04:27:16.049Z,40.60
2022-12-18T04:27:37.195Z,38.90
2022-12-18T04:27:58.221Z,38.60
2022-12-18T04:28:19.288Z,35.00
2022-12-18T04:28:40.448Z,38.60
2022-12-18T04:29:01.624Z,39.40
2022-12-18T04:29:22.643Z,37.50
2022-12-18T04:29:43.688Z,39.40
2022-12-18T04:30:04.788Z,38.90
2022-12-18T04:30:25.846Z,42.50
2022-12-18T04:30:46.927Z,41.20
2022-12-18T04:31:08.337Z,36.30
2022-12-18T04:31:29.463Z,38.50
2022-12-18T04:31:50.668Z,40.00
2022-12-18T04:32:11.724Z,36.80
2022-12-18T04:32:32.784Z,35.20
2022-12-18T04:32:53.880Z,37.00